• Join FlightAware (Why Join?)
  • Login
  • US Flag 
07:13AM EDT


 

Airport Tracker/Info


-or-


 

Live Flight TrackerFlight Track Log ✈ EGF2839 ✈ 23-Apr-2013 ✈ KDFW - KGRR

Flight Track Log - Related Links

Times and Time Zones

All times are in EDT time to prevent confusion due to time zone crossing. See the EGF2839 flight status page for this flight to view local times or setup timezone preferences in your user account.

Time Position Orientation Groundspeed Altitude Reporting Facility
EDT Latitude Longitude Course Direction KTS MPH feet Rate Location/Type
06:55PM 32.9333 -97.0333 North 175 201 2,400  Level Dallas / Fort Worth TRACON
06:56PM 32.9833 -97.0333 360° North 212 244 4,100 1,740 Climbing Dallas / Fort Worth TRACON
06:57PM 32.8697 -96.8000 North  Level FlightAware Approximate
06:58PM 32.9986 -96.8000 North  Level FlightAware Approximate
06:58PM 33.1208 -97.0042 10° North 264 304 7,400  Level Fort Worth Center
06:59PM 33.1275 -96.8038 357° North  Level FlightAware Approximate
06:59PM 33.1894 -96.9642 26° Northeast 288 331 9,100  Level Fort Worth Center
07:00PM 33.2562 -96.8118 357° North  Level FlightAware Approximate
07:00PM 33.2792 -96.9164 24° Northeast 314 361 10,600  Level Fort Worth Center
07:01PM 33.3850 -96.8167 North  Level FlightAware Approximate
07:01PM 33.3728 -96.8661 24° Northeast 357 411 11,600  Level Fort Worth Center
07:02PM 33.4706 -96.8133 24° Northeast 374 430 12,600 1,020 Climbing Fort Worth Center
07:03PM 33.5725 -96.7453 29° Northeast 396 456 13,700 960 Climbing Fort Worth Center
07:04PM 33.6725 -96.6822 28° Northeast 403 464 14,600 900 Climbing Fort Worth Center
07:05PM 33.7661 -96.6189 29° Northeast 422 486 15,500 960 Climbing Fort Worth Center
07:06PM 33.8867 -96.5428 28° Northeast 427 491 16,600 1,080 Climbing Fort Worth Center
07:07PM 33.9944 -96.4742 28° Northeast 433 498 17,700 1,140 Climbing Fort Worth Center
07:08PM 34.0900 -96.4103 29° Northeast 428 493 18,900 1,560 Climbing Fort Worth Center
07:09PM 34.1811 -96.3339 35° Northeast 417 480 20,900 1,980 Climbing Fort Worth Center
07:10PM 34.2767 -96.2547 34° Northeast 412 474 22,900 1,980 Climbing Fort Worth Center
07:11PM 34.3697 -96.1756 35° Northeast 407 468 24,900 1,500 Climbing Fort Worth Center
07:12PM 34.4608 -96.1039 33° Northeast 397 457 26,000 1,200 Climbing Fort Worth Center
07:13PM 34.5517 -96.0292 34° Northeast 397 457 27,400 1,440 Climbing Fort Worth Center
07:14PM 34.6428 -95.9522 35° Northeast 397 457 28,900 1,500 Climbing Fort Worth Center
07:15PM 34.7336 -95.8797 33° Northeast 392 451 30,400 1,440 Climbing Fort Worth Center
07:16PM 34.8225 -95.8050 35° Northeast 392 451 31,800 1,200 Climbing Fort Worth Center
07:17PM 34.9067 -95.7197 40° Northeast 392 451 32,800 900 Climbing Fort Worth Center
07:18PM 34.9847 -95.6294 43° Northeast 392 451 33,700 840 Climbing Fort Worth Center
07:19PM 35.0667 -95.5314 44° Northeast 392 451 34,500 720 Climbing Fort Worth Center
07:21PM 35.2619 -95.3031 44° Northeast 421 484 36,200 600 Climbing Memphis Center
07:22PM 35.3450 -95.2036 44° Northeast 416 479 36,600 360 Climbing Memphis Center
07:23PM 35.4322 -95.1042 43° Northeast 421 484 37,000 180 Climbing Memphis Center
07:24PM 35.5197 -94.9969 45° Northeast 426 490 37,000  Level Memphis Center
07:25PM 35.6114 -94.8872 44° Northeast 438 504 37,000  Level Memphis Center
07:26PM 35.7092 -94.7750 43° Northeast 451 519 37,000  Level Memphis Center
07:27PM 35.8072 -94.6547 45° Northeast 472 543 37,000  Level Memphis Center
07:28PM 35.9031 -94.5392 44° Northeast 479 551 37,000  Level Memphis Center
07:29PM 36.0028 -94.4186 44° Northeast 484 557 37,000  Level Memphis Center
07:30PM 36.1028 -94.2978 44° Northeast 494 568 37,000  Level Memphis Center
07:31PM 36.2003 -94.1789 45° Northeast 494 568 37,000  Level Memphis Center
07:34PM 36.4411 -93.8964 43° Northeast 494 568 37,000  Level Kansas City Center
07:35PM 36.5419 -93.7792 43° Northeast 494 568 37,000  Level Kansas City Center
07:36PM 36.6506 -93.6531 43° Northeast 492 566 37,000  Level Kansas City Center
07:37PM 36.7511 -93.5364 43° Northeast 493 567 37,000  Level Kansas City Center
07:38PM 36.8492 -93.4200 44° Northeast 488 562 37,000  Level Kansas City Center
07:39PM 36.9575 -93.2939 43° Northeast 487 560 37,000  Level Kansas City Center
07:40PM 37.0561 -93.1778 43° Northeast 485 558 37,000  Level Kansas City Center
07:41PM 37.1550 -93.0606 43° Northeast 487 560 37,000  Level Kansas City Center
07:42PM 37.2536 -92.9433 43° Northeast 487 560 37,000  Level Kansas City Center
07:43PM 37.3525 -92.8247 44° Northeast 488 562 37,000  Level Kansas City Center
07:44PM 37.4489 -92.7033 45° Northeast 489 563 37,000  Level Kansas City Center
07:45PM 37.5467 -92.5850 44° Northeast 486 559 37,000  Level Kansas City Center
07:46PM 37.6439 -92.4689 43° Northeast 482 555 37,000  Level Kansas City Center
07:47PM 37.7425 -92.3481 44° Northeast 482 555 37,000  Level Kansas City Center
07:48PM 37.8392 -92.2294 44° Northeast 484 557 37,000  Level Kansas City Center
07:49PM 37.9550 -92.0847 45° Northeast 488 562 37,000  Level Kansas City Center
07:50PM 38.0458 -91.9747 44° Northeast 485 558 37,000  Level Kansas City Center
07:51PM 38.1425 -91.8553 44° Northeast 484 557 37,000  Level Kansas City Center
07:52PM 38.2369 -91.7361 45° Northeast 481 554 37,000  Level Kansas City Center
07:54PM 38.3544 -91.5931 44° Northeast 483 556 37,000  Level Kansas City Center
07:55PM 38.4497 -91.4739 44° Northeast 481 554 37,000  Level Kansas City Center
07:56PM 38.5294 -91.3717 45° Northeast 475 547 37,000  Level Kansas City Center
07:57PM 38.6439 -91.2269 45° Northeast 479 551 37,000  Level Kansas City Center
07:58PM 38.7389 -91.1067 45° Northeast 480 552 37,000  Level Kansas City Center
07:59PM 38.8353 -90.9872 44° Northeast 479 551 37,000  Level Kansas City Center
08:00PM 38.9314 -90.8647 45° Northeast 481 554 37,000  Level Kansas City Center
08:01PM 39.0269 -90.7403 45° Northeast 484 557 37,000  Level Kansas City Center
08:02PM 39.1236 -90.6169 45° Northeast 485 558 37,000  Level Kansas City Center
08:03PM 39.2211 -90.4925 45° Northeast 489 563 37,000  Level Kansas City Center
08:04PM 39.3167 -90.3672 45° Northeast 488 562 37,000  Level Kansas City Center
08:05PM 39.4117 -90.2411 46° Northeast 489 563 37,000  Level Kansas City Center
08:06PM 39.5083 -90.1156 45° Northeast 491 565 37,000  Level Kansas City Center
08:07PM 39.6219 -89.9653 46° Northeast 488 562 37,000  Level Kansas City Center
08:08PM 39.7164 -89.8408 45° Northeast 486 559 37,000  Level Kansas City Center
08:09PM 39.8000 -89.7306 45° Northeast 486 559 37,000  Level Kansas City Center
08:10PM 39.8950 -89.6083 45° Northeast 487 560 37,000  Level Chicago Center
08:11PM 39.9917 -89.4844 44° Northeast 489 563 37,000  Level Chicago Center
08:12PM 40.1075 -89.3339 45° Northeast 489 563 37,000  Level Kansas City Center
08:13PM 40.2033 -89.2103 45° Northeast 491 565 37,000  Level Chicago Center
08:14PM 40.2983 -89.0861 45° Northeast 489 563 37,000  Level Chicago Center
08:15PM 40.3961 -88.9606 44° Northeast 494 568 37,000  Level Chicago Center
08:16PM 40.4933 -88.8328 45° Northeast 491 565 37,000  Level Chicago Center
08:17PM 40.5886 -88.7067 45° Northeast 489 563 37,000 -120 Level Chicago Center
08:18PM 40.7042 -88.5553 45° Northeast 491 565 36,800 -300 Descending Chicago Center
08:19PM 40.8014 -88.4264 45° Northeast 496 571 36,400 -480 Descending Chicago Center
08:20PM 40.8989 -88.2978 45° Northeast 499 574 35,900 -540 Descending Chicago Center
08:21PM 40.9969 -88.1658 45° Northeast 504 580 35,400 -480 Descending Chicago Center
08:22PM 41.0950 -88.0344 45° Northeast 506 582 35,000 -240 Descending Chicago Center
08:23PM 41.2111 -87.8769 46° Northeast 507 583 35,000 -300 Level Chicago Center
08:24PM 41.3081 -87.7450 46° Northeast 508 585 34,500 -600 Descending Chicago Center
08:25PM 41.4039 -87.6142 46° Northeast 505 581 33,800 -780 Descending Chicago Center
08:26PM 41.4994 -87.4839 46° Northeast 500 575 32,900 -1,020 Descending Chicago Center
08:27PM 41.6156 -87.3253 46° Northeast 505 581 31,700 -1,260 Descending Chicago Center
08:28PM 41.7136 -87.1922 45° Northeast 506 582 30,400 -1,980 Descending Chicago Center
08:29PM 41.8111 -87.0586 46° Northeast 505 581 27,700 -2,520 Descending Chicago Center
08:30PM 41.9039 -86.9250 47° Northeast 497 572 25,300 -2,520 Descending Chicago Center
08:31PM 41.9994 -86.7917 46° Northeast 498 573 22,600 -2,700 Descending Chicago Center
08:32PM 42.0944 -86.6558 47° Northeast 493 567 19,800 -2,520 Descending Chicago Center
08:34PM 42.1872 -86.5250 46° Northeast 486 559 17,500 -1,380 Descending Chicago Center
08:35PM 42.2742 -86.4014 46° Northeast 461 531 17,000 -1,140 Descending Chicago Center
08:36PM 42.3703 -86.2633 47° Northeast 448 516 15,200 -1,920 Descending Chicago Center
08:37PM 42.4528 -86.1447 47° Northeast 437 503 13,100 -1,920 Descending Chicago Center
08:38PM 42.5333 -86.0286 47° Northeast 429 494 11,300 -1,440 Descending Chicago Center
08:39PM 42.6236 -85.8986 47° Northeast 404 465 10,200 -720 Descending Chicago Center
08:40PM 42.6881 -85.8053 47° Northeast 359 413 9,900 -900 Descending Chicago Center
08:41PM 42.7444 -85.7236 47° Northeast 315 362 8,400 -1,740 Descending Chicago Center
08:42PM 42.7692 -85.6317 70° East 270 311 6,400 -1,200 Descending Chicago Center
08:43PM 42.7914 -85.5397 72° East 260 299 6,000 -300 Descending Chicago Center
08:44PM 42.8136 -85.4475 72° East 258 297 5,900 -60 Descending Chicago Center
08:45PM 42.8400 -85.3383 72° East 256 295 5,900 -240 Level Chicago Center
08:46PM 42.8589 -85.2636 71° East 219 252 5,500 -900 Descending Chicago Center
08:47PM 42.8764 -85.1900 72° East 208 239 4,100 -1,260 Descending Chicago Center
08:48PM 42.9067 -85.1436 48° Northeast 206 237 2,900 -780 Descending Chicago Center
08:49PM 42.9153 -85.1989 282° West 173 199 2,600 -180 Descending Chicago Center
08:50PM 42.9097 -85.2622 263° West 167 192 2,600  Level Chicago Center